createdAt,value
2023-05-13T00:02:26.216Z,8.89
2023-05-13T00:04:54.219Z,8.89
2023-05-13T00:07:22.065Z,8.90
2023-05-13T00:09:49.899Z,8.89
2023-05-13T00:12:17.702Z,8.91
2023-05-13T00:14:45.231Z,8.92
2023-05-13T00:17:12.835Z,8.93
2023-05-13T00:19:40.841Z,8.93
2023-05-13T00:22:09.147Z,8.92
2023-05-13T00:24:37.013Z,8.94
2023-05-13T00:27:05.079Z,8.95
2023-05-13T00:29:34.482Z,8.97
2023-05-13T00:32:02.158Z,8.99
2023-05-13T00:34:30.180Z,9.03
2023-05-13T00:36:57.797Z,9.04
2023-05-13T00:39:25.555Z,9.06
2023-05-13T00:41:53.113Z,9.07
2023-05-13T00:44:20.894Z,9.05
2023-05-13T00:46:49.937Z,9.05
2023-05-13T00:49:17.719Z,9.04
2023-05-13T00:51:45.579Z,9.05
2023-05-13T00:54:13.608Z,9.06
2023-05-13T00:56:41.211Z,9.06
2023-05-13T00:59:08.759Z,9.05
2023-05-13T01:02:05.808Z,9.05
2023-05-13T01:05:15.197Z,9.03
2023-05-13T01:08:26.077Z,9.02
2023-05-13T01:11:05.115Z,8.99
2023-05-13T01:13:39.457Z,8.95
2023-05-13T01:16:22.756Z,8.95
2023-05-13T01:18:56.058Z,8.93
2023-05-13T01:21:28.016Z,8.90
2023-05-13T01:23:56.313Z,8.89
2023-05-13T01:26:26.182Z,8.87
2023-05-13T01:28:54.062Z,8.86
2023-05-13T01:31:24.108Z,8.86
2023-05-13T01:33:52.016Z,8.86
2023-05-13T01:36:20.430Z,8.84
2023-05-13T01:38:49.962Z,8.84
2023-05-13T01:41:18.902Z,8.83
2023-05-13T01:43:46.238Z,8.83
2023-05-13T01:46:14.096Z,8.83
2023-05-13T01:48:42.127Z,8.81
2023-05-13T01:51:10.133Z,8.82
2023-05-13T01:53:37.939Z,8.81
2023-05-13T01:56:10.622Z,8.81
2023-05-13T01:58:38.322Z,8.81
2023-05-13T02:01:06.072Z,8.81
2023-05-13T02:03:34.984Z,8.81
2023-05-13T02:06:02.933Z,8.81
2023-05-13T02:08:30.684Z,8.80
2023-05-13T02:10:59.716Z,8.81
2023-05-13T02:13:29.201Z,8.81
2023-05-13T02:15:57.878Z,8.80
2023-05-13T02:18:25.787Z,8.79
2023-05-13T02:20:53.411Z,8.79
2023-05-13T02:23:21.269Z,8.78
2023-05-13T02:25:48.975Z,8.79
2023-05-13T02:28:16.630Z,8.80
2023-05-13T02:30:44.196Z,8.79
2023-05-13T02:33:12.602Z,8.79
2023-05-13T02:35:40.360Z,8.79
2023-05-13T02:38:10.379Z,8.78
2023-05-13T02:40:38.272Z,8.76
2023-05-13T02:43:06.467Z,8.77
2023-05-13T02:45:35.977Z,8.79
2023-05-13T02:48:04.053Z,8.80
2023-05-13T02:50:31.681Z,8.80
2023-05-13T02:52:59.173Z,8.77
2023-05-13T02:55:27.063Z,8.74
2023-05-13T02:57:56.256Z,8.73
2023-05-13T03:00:24.316Z,8.67
2023-05-13T03:02:52.329Z,8.62
2023-05-13T03:05:20.062Z,8.57
2023-05-13T03:07:47.814Z,8.52
2023-05-13T03:10:15.538Z,8.49
2023-05-13T03:12:43.444Z,8.45
2023-05-13T03:15:11.328Z,8.41
2023-05-13T03:17:39.101Z,8.40
2023-05-13T03:20:08.137Z,8.38
2023-05-13T03:22:40.521Z,8.38
2023-05-13T03:25:08.629Z,8.38
2023-05-13T03:27:38.988Z,8.40
2023-05-13T03:30:07.921Z,8.42
2023-05-13T03:32:37.677Z,8.45
2023-05-13T03:35:09.601Z,8.46
2023-05-13T03:37:37.752Z,8.49
2023-05-13T03:40:07.050Z,8.48
2023-05-13T03:43:02.224Z,8.51
2023-05-13T03:45:30.825Z,8.48
2023-05-13T03:48:00.545Z,8.48
2023-05-13T03:50:28.397Z,8.46
2023-05-13T03:52:56.675Z,8.47
2023-05-13T03:55:24.581Z,8.48
2023-05-13T03:57:52.308Z,8.48
2023-05-13T04:00:21.543Z,8.49
2023-05-13T04:02:50.000Z,8.53
2023-05-13T04:05:18.080Z,8.53
2023-05-13T04:07:46.761Z,8.50
2023-05-13T04:10:16.165Z,8.50
2023-05-13T04:12:44.842Z,8.48
2023-05-13T04:15:12.665Z,8.46
2023-05-13T04:17:41.232Z,8.44
2023-05-13T04:20:09.571Z,8.40
2023-05-13T04:22:36.987Z,8.35
2023-05-13T04:25:05.666Z,8.30
2023-05-13T04:27:33.504Z,8.27
2023-05-13T04:30:07.038Z,8.26
2023-05-13T04:32:35.680Z,8.24
2023-05-13T04:35:03.958Z,8.24
2023-05-13T04:37:32.685Z,8.25
2023-05-13T04:40:02.234Z,8.24
2023-05-13T04:42:30.497Z,8.24
2023-05-13T04:44:58.356Z,8.24
2023-05-13T04:47:26.438Z,8.22
2023-05-13T04:49:55.885Z,8.25
2023-05-13T04:52:30.044Z,8.24
2023-05-13T04:57:51.362Z,8.25
2023-05-13T05:00:19.235Z,8.25
2023-05-13T05:02:49.243Z,8.25
2023-05-13T05:05:18.517Z,8.27
2023-05-13T05:07:46.878Z,8.29
2023-05-13T05:10:17.070Z,8.28
2023-05-13T05:12:46.512Z,8.30
2023-05-13T05:15:17.315Z,8.30
2023-05-13T05:17:47.086Z,8.34
2023-05-13T05:20:17.037Z,8.35
2023-05-13T05:22:45.709Z,8.39
2023-05-13T05:25:17.122Z,8.41
2023-05-13T05:27:45.136Z,8.44
2023-05-13T05:30:14.026Z,8.47
2023-05-13T05:32:44.487Z,8.51
2023-05-13T05:35:21.556Z,8.56
2023-05-13T05:37:57.237Z,8.62
2023-05-13T05:40:26.918Z,8.66
2023-05-13T05:42:54.484Z,8.72
2023-05-13T05:45:22.361Z,8.78
2023-05-13T05:47:50.885Z,8.86
2023-05-13T05:50:20.747Z,8.95
2023-05-13T05:52:49.182Z,9.00
2023-05-13T05:55:19.291Z,9.05
2023-05-13T05:57:46.914Z,9.10
2023-05-13T06:00:15.516Z,9.15
2023-05-13T06:02:43.101Z,9.21
2023-05-13T06:05:12.321Z,9.28
2023-05-13T06:07:40.656Z,9.33
2023-05-13T06:10:09.331Z,9.40
2023-05-13T06:12:37.234Z,9.45
2023-05-13T06:15:08.214Z,9.50
2023-05-13T06:17:37.474Z,9.57
2023-05-13T06:20:12.429Z,9.63
2023-05-13T06:22:47.533Z,9.71
2023-05-13T06:25:15.783Z,9.78
2023-05-13T06:27:44.414Z,9.84
2023-05-13T06:30:12.415Z,9.89
2023-05-13T06:32:50.277Z,9.96
2023-05-13T06:35:13.109Z,10.00
2023-05-13T06:37:40.948Z,10.08
2023-05-13T06:40:09.516Z,10.11
2023-05-13T06:42:40.675Z,10.15
2023-05-13T06:45:13.404Z,10.21
2023-05-13T06:47:45.891Z,10.23
2023-05-13T06:50:13.362Z,10.29
2023-05-13T06:52:43.062Z,10.32
2023-05-13T06:55:12.701Z,10.37
2023-05-13T06:57:43.381Z,10.42
2023-05-13T07:00:10.733Z,10.46
2023-05-13T07:02:42.731Z,10.52
2023-05-13T07:05:12.419Z,10.57
2023-05-13T07:07:39.877Z,10.63
2023-05-13T07:10:08.045Z,10.69
2023-05-13T07:12:36.381Z,10.73
2023-05-13T07:15:11.876Z,10.78
2023-05-13T07:17:43.191Z,10.83
2023-05-13T07:20:35.746Z,10.85
2023-05-13T07:23:13.028Z,10.87
2023-05-13T07:25:41.200Z,10.91
2023-05-13T07:28:09.818Z,10.95
2023-05-13T07:30:42.516Z,10.99
2023-05-13T07:33:10.258Z,11.02
2023-05-13T07:35:37.850Z,11.04
2023-05-13T07:38:07.868Z,11.07
2023-05-13T07:40:35.555Z,11.11
2023-05-13T07:43:03.212Z,11.15
2023-05-13T07:45:32.293Z,11.22
2023-05-13T07:48:00.109Z,11.25
2023-05-13T07:50:28.059Z,11.32
2023-05-13T07:52:59.874Z,11.40
2023-05-13T07:55:30.019Z,11.47
2023-05-13T07:57:59.422Z,11.57
2023-05-13T08:00:27.344Z,11.65
2023-05-13T08:02:56.568Z,11.75
2023-05-13T08:05:24.360Z,11.87
2023-05-13T08:07:52.414Z,12.01
2023-05-13T08:10:23.643Z,12.11
2023-05-13T08:12:54.833Z,12.23
2023-05-13T08:15:25.721Z,12.31
2023-05-13T08:17:54.450Z,12.37
2023-05-13T08:20:24.073Z,12.40
2023-05-13T08:22:51.428Z,12.48
2023-05-13T08:25:19.386Z,12.55
2023-05-13T08:27:47.072Z,12.61
2023-05-13T08:30:15.505Z,12.68
2023-05-13T08:32:43.307Z,12.78
2023-05-13T08:35:13.920Z,12.87
2023-05-13T08:37:41.548Z,12.88
2023-05-13T08:40:11.837Z,13.05
2023-05-13T08:42:45.910Z,13.16
2023-05-13T08:45:16.209Z,13.27
2023-05-13T08:48:02.247Z,13.40
2023-05-13T08:50:32.146Z,13.52
2023-05-13T08:53:00.621Z,13.64
2023-05-13T08:55:29.308Z,13.72
2023-05-13T08:57:58.389Z,13.80
2023-05-13T09:00:26.625Z,13.87
2023-05-13T09:02:53.920Z,13.88
2023-05-13T09:05:27.619Z,13.92
2023-05-13T09:07:55.856Z,13.98
2023-05-13T09:10:26.860Z,14.00
2023-05-13T09:12:55.270Z,14.12
2023-05-13T09:15:27.669Z,14.09
2023-05-13T09:18:06.237Z,14.15
2023-05-13T09:20:35.305Z,14.22
2023-05-13T09:23:11.694Z,14.28
2023-05-13T09:25:40.564Z,14.37
2023-05-13T09:28:14.567Z,14.41
2023-05-13T09:30:45.484Z,14.48
2023-05-13T09:33:19.300Z,14.57
2023-05-13T09:35:53.506Z,14.55
2023-05-13T09:38:30.836Z,14.51
2023-05-13T09:41:03.171Z,14.44
2023-05-13T09:43:32.872Z,14.35
2023-05-13T09:46:04.933Z,14.41
2023-05-13T09:48:34.357Z,14.55
2023-05-13T09:51:02.216Z,14.61
2023-05-13T09:53:31.562Z,14.71
2023-05-13T09:56:00.956Z,14.81
2023-05-13T09:58:30.316Z,15.01
2023-05-13T10:00:58.698Z,15.17
2023-05-13T10:03:31.145Z,15.18
2023-05-13T10:06:02.238Z,15.22
2023-05-13T10:08:37.080Z,15.30
2023-05-13T10:11:10.936Z,15.46
2023-05-13T10:13:46.571Z,15.75
2023-05-13T10:16:14.601Z,15.94
2023-05-13T10:18:43.119Z,16.11
2023-05-13T10:21:12.836Z,16.18
2023-05-13T10:23:40.810Z,16.28
2023-05-13T10:26:09.153Z,16.41
2023-05-13T10:28:38.578Z,16.35
2023-05-13T10:31:07.702Z,16.19
2023-05-13T10:33:35.882Z,16.11
2023-05-13T10:37:00.058Z,16.14
2023-05-13T10:39:41.582Z,16.20
2023-05-13T10:42:41.979Z,16.32
2023-05-13T10:45:10.862Z,16.38
2023-05-13T10:47:39.432Z,16.41
2023-05-13T10:50:22.811Z,16.30
2023-05-13T10:52:56.657Z,16.26
2023-05-13T10:55:26.825Z,16.39
2023-05-13T10:58:10.483Z,16.49
2023-05-13T11:00:42.077Z,16.56
2023-05-13T11:03:23.624Z,16.50
2023-05-13T11:06:20.179Z,16.70
2023-05-13T11:08:52.504Z,16.85
2023-05-13T11:11:28.457Z,17.08
2023-05-13T11:14:20.495Z,17.10
2023-05-13T11:17:06.226Z,17.01
2023-05-13T11:19:50.944Z,17.23
2023-05-13T11:22:23.431Z,17.51
2023-05-13T11:25:10.395Z,17.76
2023-05-13T11:27:42.088Z,17.96
2023-05-13T11:30:26.425Z,17.93
2023-05-13T11:32:57.585Z,17.76
2023-05-13T11:35:31.022Z,17.72
2023-05-13T11:38:01.893Z,17.68
2023-05-13T11:40:33.859Z,17.47
2023-05-13T11:43:06.205Z,17.37
2023-05-13T11:45:40.726Z,17.44
2023-05-13T11:48:23.558Z,17.59
2023-05-13T11:50:51.485Z,17.65
2023-05-13T11:53:22.324Z,17.76
2023-05-13T11:55:50.753Z,17.96
2023-05-13T11:58:20.940Z,18.20
2023-05-13T12:00:49.126Z,18.54
2023-05-13T12:03:19.040Z,18.75
2023-05-13T12:05:48.688Z,18.89
2023-05-13T12:08:16.308Z,18.95
2023-05-13T12:10:45.712Z,18.96
2023-05-13T12:13:16.875Z,18.74
2023-05-13T12:15:45.755Z,18.38
2023-05-13T12:18:13.624Z,18.16
2023-05-13T12:20:41.445Z,18.25
2023-05-13T12:23:12.060Z,18.38
2023-05-13T12:25:44.368Z,18.31
2023-05-13T12:28:23.655Z,18.32
2023-05-13T12:31:35.445Z,18.46
2023-05-13T12:34:03.727Z,18.55
2023-05-13T12:36:33.542Z,18.54
2023-05-13T12:39:35.085Z,18.29
2023-05-13T12:41:57.046Z,18.23
2023-05-13T12:44:29.559Z,18.33
2023-05-13T12:46:59.884Z,18.39
2023-05-13T12:49:27.748Z,18.40
2023-05-13T12:51:58.133Z,18.11
2023-05-13T12:54:26.970Z,18.17
2023-05-13T12:56:54.511Z,18.33
2023-05-13T12:59:27.714Z,18.40
2023-05-13T13:01:55.316Z,18.49
2023-05-13T13:04:22.868Z,18.48
2023-05-13T13:06:50.437Z,18.50
2023-05-13T13:09:20.967Z,18.50
2023-05-13T13:11:52.175Z,18.52
2023-05-13T13:14:25.609Z,18.55
2023-05-13T13:16:55.252Z,18.58
2023-05-13T13:19:22.994Z,18.60
2023-05-13T13:21:50.659Z,18.66
2023-05-13T13:24:19.761Z,18.57
2023-05-13T13:26:50.496Z,18.48
2023-05-13T13:29:18.035Z,18.52
2023-05-13T13:31:46.445Z,18.59
2023-05-13T13:34:17.142Z,18.55
2023-05-13T13:36:45.484Z,18.38
2023-05-13T13:39:13.046Z,18.28
2023-05-13T13:41:40.932Z,18.25
2023-05-13T13:44:08.629Z,18.28
2023-05-13T13:46:36.438Z,18.38
2023-05-13T13:49:16.285Z,18.41
2023-05-13T13:51:34.042Z,18.32
2023-05-13T13:54:05.836Z,18.32
2023-05-13T13:56:37.696Z,18.37
2023-05-13T13:59:05.976Z,18.48
2023-05-13T14:01:33.926Z,18.47
2023-05-13T14:04:19.420Z,18.45
2023-05-13T14:06:46.717Z,18.46
2023-05-13T14:09:15.610Z,18.41
2023-05-13T14:11:43.137Z,18.32
2023-05-13T14:14:11.090Z,18.23
2023-05-13T14:16:39.345Z,18.00
2023-05-13T14:19:07.299Z,17.78
2023-05-13T14:21:35.471Z,17.72
2023-05-13T14:24:03.505Z,17.64
2023-05-13T14:26:31.328Z,17.63
2023-05-13T14:28:58.923Z,17.64
2023-05-13T14:31:27.688Z,17.64
2023-05-13T14:33:55.552Z,17.66
2023-05-13T14:36:26.225Z,17.64
2023-05-13T14:38:56.864Z,17.70
2023-05-13T14:41:25.315Z,17.59
2023-05-13T14:43:53.102Z,17.52
2023-05-13T14:46:20.906Z,17.51
2023-05-13T14:48:54.591Z,17.59
2023-05-13T14:51:22.622Z,17.61
2023-05-13T14:53:51.965Z,17.58
2023-05-13T14:56:19.899Z,17.55
2023-05-13T14:58:50.519Z,17.50
2023-05-13T15:01:18.168Z,17.46
2023-05-13T15:03:45.897Z,17.42
2023-05-13T15:06:15.696Z,17.41
2023-05-13T15:08:43.582Z,17.40
2023-05-13T15:11:11.257Z,17.40
2023-05-13T15:13:38.769Z,17.39
2023-05-13T15:16:08.049Z,17.36
2023-05-13T15:18:35.816Z,17.30
2023-05-13T15:21:03.656Z,17.25
2023-05-13T15:23:31.588Z,17.25
2023-05-13T15:26:00.281Z,17.22
2023-05-13T15:28:28.648Z,17.17
2023-05-13T15:30:56.408Z,17.15
2023-05-13T15:33:25.885Z,17.13
2023-05-13T15:35:54.056Z,17.12
2023-05-13T15:38:21.607Z,17.12
2023-05-13T15:40:49.982Z,17.11
2023-05-13T15:43:17.948Z,17.07
2023-05-13T15:45:49.209Z,17.08
2023-05-13T15:48:17.662Z,17.06
2023-05-13T15:50:45.831Z,17.02
2023-05-13T15:53:13.360Z,16.97
2023-05-13T15:55:44.130Z,16.93
2023-05-13T15:58:12.023Z,16.88
2023-05-13T16:00:39.701Z,16.82
2023-05-13T16:03:07.193Z,16.79
2023-05-13T16:05:36.474Z,16.74
2023-05-13T16:08:04.568Z,16.70
2023-05-13T16:10:34.258Z,16.67
2023-05-13T16:13:02.491Z,16.66
2023-05-13T16:15:29.976Z,16.65
2023-05-13T16:17:58.451Z,16.65
2023-05-13T16:20:27.202Z,16.67
2023-05-13T16:22:54.880Z,16.67
2023-05-13T16:25:25.272Z,16.68
2023-05-13T16:27:56.298Z,16.68
2023-05-13T16:30:44.831Z,16.70
2023-05-13T16:33:14.302Z,16.72
2023-05-13T16:35:47.441Z,16.69
2023-05-13T16:38:15.299Z,16.66
2023-05-13T16:40:43.960Z,16.62
2023-05-13T16:43:15.032Z,16.58
2023-05-13T16:45:45.398Z,16.54
2023-05-13T16:48:15.302Z,16.37
2023-05-13T16:50:58.620Z,16.45
2023-05-13T16:53:26.386Z,16.38
2023-05-13T16:55:56.132Z,16.32
2023-05-13T16:58:24.995Z,16.23
2023-05-13T17:00:59.516Z,16.16
2023-05-13T17:03:27.050Z,16.10
2023-05-13T17:05:55.267Z,16.05
2023-05-13T17:08:23.895Z,15.96
2023-05-13T17:10:59.195Z,15.87
2023-05-13T17:13:21.553Z,15.79
2023-05-13T17:15:50.196Z,15.68
2023-05-13T17:18:24.115Z,15.60
2023-05-13T17:21:03.205Z,15.51
2023-05-13T17:23:54.840Z,15.46
2023-05-13T17:26:24.522Z,15.39
2023-05-13T17:29:05.241Z,15.30
2023-05-13T17:31:33.263Z,15.19
2023-05-13T17:34:05.830Z,15.08
2023-05-13T17:36:36.003Z,14.85
2023-05-13T17:39:04.149Z,14.85
2023-05-13T17:41:32.158Z,14.79
2023-05-13T17:44:03.825Z,14.68
2023-05-13T17:46:32.416Z,14.59
2023-05-13T17:49:02.191Z,14.49
2023-05-13T17:51:31.954Z,14.40
2023-05-13T17:54:00.846Z,14.29
2023-05-13T17:56:34.618Z,14.22
2023-05-13T17:59:03.873Z,14.12
2023-05-13T18:04:48.993Z,13.91
2023-05-13T18:07:16.844Z,13.74
2023-05-13T18:09:48.562Z,13.61
2023-05-13T18:12:15.903Z,13.49
2023-05-13T18:14:43.802Z,13.35
2023-05-13T18:17:14.747Z,13.25
2023-05-13T18:19:42.455Z,13.16
2023-05-13T18:22:10.410Z,13.06
2023-05-13T18:24:38.664Z,12.92
2023-05-13T18:27:10.110Z,12.89
2023-05-13T18:29:38.939Z,12.82
2023-05-13T18:32:11.007Z,12.76
2023-05-13T18:34:39.230Z,12.68
2023-05-13T18:37:06.902Z,12.57
2023-05-13T18:39:34.762Z,12.52
2023-05-13T18:42:02.861Z,12.44
2023-05-13T18:44:30.597Z,12.36
2023-05-13T18:46:57.965Z,12.28
2023-05-13T18:49:28.911Z,12.17
2023-05-13T18:51:56.930Z,12.09
2023-05-13T18:54:28.797Z,11.99
2023-05-13T18:56:56.882Z,11.90
2023-05-13T18:59:24.541Z,11.82
2023-05-13T19:01:52.942Z,11.74
2023-05-13T19:04:20.969Z,11.65
2023-05-13T19:06:48.876Z,11.53
2023-05-13T19:09:16.683Z,11.42
2023-05-13T19:11:47.159Z,11.32
2023-05-13T19:14:15.024Z,11.20
2023-05-13T19:16:48.139Z,11.11
2023-05-13T19:19:16.075Z,11.04
2023-05-13T19:21:45.651Z,10.97
2023-05-13T19:24:13.476Z,10.90
2023-05-13T19:26:41.165Z,10.84
2023-05-13T19:29:09.152Z,10.79
2023-05-13T19:31:36.805Z,10.72
2023-05-13T19:34:04.725Z,10.67
2023-05-13T19:36:32.696Z,10.62
2023-05-13T19:39:00.644Z,10.58
2023-05-13T19:41:28.182Z,10.53
2023-05-13T19:43:56.297Z,10.49
2023-05-13T19:46:24.136Z,10.46
2023-05-13T19:48:52.078Z,10.43
2023-05-13T19:51:20.094Z,10.38
2023-05-13T19:53:47.860Z,10.33
2023-05-13T19:56:16.586Z,10.29
2023-05-13T19:58:44.445Z,10.23
2023-05-13T20:01:14.249Z,10.19
2023-05-13T20:03:45.370Z,10.17
2023-05-13T20:06:13.055Z,10.12
2023-05-13T20:08:42.686Z,10.07
2023-05-13T20:11:14.006Z,10.04
2023-05-13T20:13:52.958Z,9.99
2023-05-13T20:16:22.950Z,9.94
2023-05-13T20:18:54.527Z,9.88
2023-05-13T20:21:22.505Z,9.82
2023-05-13T20:23:50.908Z,9.77
2023-05-13T20:26:18.749Z,9.73
2023-05-13T20:28:47.316Z,9.67
2023-05-13T20:31:15.739Z,9.64
2023-05-13T20:33:46.207Z,9.61
2023-05-13T20:36:16.968Z,9.58
2023-05-13T20:38:45.801Z,9.56
2023-05-13T20:41:14.016Z,9.54
2023-05-13T20:43:43.679Z,9.52
2023-05-13T20:46:16.328Z,9.52
2023-05-13T20:48:44.014Z,9.52
2023-05-13T20:51:11.722Z,9.51
2023-05-13T20:53:39.788Z,9.50
2023-05-13T20:56:09.255Z,9.48
2023-05-13T20:58:37.000Z,9.46
2023-05-13T21:01:06.592Z,9.42
2023-05-13T21:03:35.211Z,9.39
2023-05-13T21:06:05.875Z,9.36
2023-05-13T21:08:35.454Z,9.32
2023-05-13T21:11:03.938Z,9.27
2023-05-13T21:13:31.959Z,9.24
2023-05-13T21:16:04.542Z,9.19
2023-05-13T21:18:33.573Z,9.15
2023-05-13T21:21:01.558Z,9.11
2023-05-13T21:23:29.075Z,9.06
2023-05-13T21:26:02.299Z,9.01
2023-05-13T21:28:29.922Z,8.96
2023-05-13T21:30:57.749Z,8.92
2023-05-13T21:33:25.699Z,8.87
2023-05-13T21:35:53.694Z,8.83
2023-05-13T21:38:22.040Z,8.79
2023-05-13T21:40:49.904Z,8.75
2023-05-13T21:43:17.816Z,8.71
2023-05-13T21:45:49.741Z,8.69
2023-05-13T21:48:18.657Z,8.65
2023-05-13T21:50:46.401Z,8.63
2023-05-13T21:53:14.445Z,8.58
2023-05-13T21:55:42.273Z,8.57
2023-05-13T21:58:10.045Z,8.53
2023-05-13T22:00:37.794Z,8.49
2023-05-13T22:03:05.541Z,8.45
2023-05-13T22:05:33.168Z,8.42
2023-05-13T22:08:01.319Z,8.37
2023-05-13T22:10:30.224Z,8.32
2023-05-13T22:12:58.104Z,8.28
2023-05-13T22:15:28.376Z,8.24
2023-05-13T22:17:56.215Z,8.18
2023-05-13T22:20:24.781Z,8.15
2023-05-13T22:22:52.773Z,8.09
2023-05-13T22:25:20.684Z,8.05
2023-05-13T22:27:50.293Z,8.03
2023-05-13T22:30:18.253Z,8.02
2023-05-13T22:32:46.023Z,7.99
2023-05-13T22:35:13.689Z,7.97
2023-05-13T22:37:41.374Z,7.96
2023-05-13T22:40:10.936Z,7.94
2023-05-13T22:42:38.620Z,7.92
2023-05-13T22:45:07.097Z,7.88
2023-05-13T22:47:38.698Z,7.84
2023-05-13T22:50:07.431Z,7.83
2023-05-13T22:52:35.114Z,7.79
2023-05-13T22:55:02.801Z,7.75
2023-05-13T22:57:30.740Z,7.70
2023-05-13T22:59:58.365Z,7.67
2023-05-13T23:02:25.983Z,7.62
2023-05-13T23:04:53.826Z,7.58
2023-05-13T23:07:21.485Z,7.54
2023-05-13T23:09:49.241Z,7.49
2023-05-13T23:12:16.859Z,7.44
2023-05-13T23:14:44.569Z,7.40
2023-05-13T23:17:12.396Z,7.37
2023-05-13T23:19:40.137Z,7.32
2023-05-13T23:22:07.623Z,7.27
2023-05-13T23:24:35.123Z,7.21
2023-05-13T23:27:03.321Z,7.15
2023-05-13T23:29:31.985Z,7.12
2023-05-13T23:32:00.055Z,7.06
2023-05-13T23:34:27.767Z,6.98
2023-05-13T23:36:55.955Z,6.93
2023-05-13T23:39:23.589Z,6.86
2023-05-13T23:41:51.129Z,6.81
2023-05-13T23:44:19.831Z,6.79
2023-05-13T23:46:47.502Z,6.78
2023-05-13T23:49:16.020Z,6.76
2023-05-13T23:51:43.967Z,6.77
2023-05-13T23:54:11.527Z,6.77
2023-05-13T23:56:39.569Z,6.78
2023-05-13T23:59:08.134Z,6.79
